Time;durP1;ratioP1;P1;durP2;ratioP2;P2;SDS_P1;SDS_P2;PMS_P1;PMS_P2;Temp;Humidity;BMP_temperature;BMP_pressure;BME280_temperature;BME280_humidity;BME280_pressure;Samples;Min_cycle;Max_cycle;Signal;HPM_P1;HPM_P2
2023/10/09 00:01:12;;;;;;;6.00;2.20;;;12.80;99.90;;;;;;5047085;28;20476;-59
2023/10/09 00:03:43;;;;;;;4.23;2.50;;;12.70;99.90;;;;;;5047527;28;20491;-59
2023/10/09 00:06:12;;;;;;;2.70;2.10;;;12.70;99.90;;;;;;5046105;28;20463;-60
2023/10/09 00:08:44;;;;;;;5.33;2.50;;;12.70;99.90;;;;;;5046527;28;20503;-60
2023/10/09 00:11:16;;;;;;;2.80;1.97;;;12.60;99.90;;;;;;5049271;28;20432;-59
2023/10/09 00:13:50;;;;;;;3.40;2.23;;;12.60;99.90;;;;;;5050092;28;20536;-58
2023/10/09 00:16:32;;;;;;;2.90;2.37;;;12.50;99.90;;;;;;5050252;28;20512;-59
2023/10/09 00:19:13;;;;;;;4.93;2.70;;;12.50;99.90;;;;;;5050008;28;20432;-60
2023/10/09 00:21:41;;;;;;;3.17;2.03;;;12.50;99.90;;;;;;5050811;28;20428;-59
2023/10/09 00:24:13;;;;;;;3.70;2.10;;;12.50;99.90;;;;;;5049144;28;20479;-59
2023/10/09 00:26:45;;;;;;;4.93;2.67;;;12.40;99.90;;;;;;5051483;28;20468;-60
2023/10/09 00:29:21;;;;;;;3.43;2.27;;;12.50;99.90;;;;;;5049592;28;20428;-60
2023/10/09 00:32:04;;;;;;;7.20;2.23;;;12.40;99.90;;;;;;5049585;28;20466;-59
2023/10/09 00:34:39;;;;;;;4.00;2.40;;;12.40;99.90;;;;;;5047159;28;20429;-60
2023/10/09 00:37:10;;;;;;;4.77;2.40;;;12.40;99.90;;;;;;5046737;28;20472;-60
2023/10/09 00:39:43;;;;;;;5.27;2.40;;;12.30;99.90;;;;;;5047786;28;20455;-60
2023/10/09 00:42:14;;;;;;;4.57;2.20;;;12.30;99.90;;;;;;5046921;28;20490;-60
2023/10/09 00:44:42;;;;;;;4.03;2.67;;;12.30;99.90;;;;;;5048410;28;20802;-60
2023/10/09 00:47:22;;;;;;;4.40;2.50;;;12.30;99.90;;;;;;5046931;28;20471;-59
2023/10/09 00:49:57;;;;;;;7.07;3.13;;;12.30;99.90;;;;;;5047125;28;20417;-59
2023/10/09 00:52:36;;;;;;;9.63;2.50;;;12.20;99.90;;;;;;5047702;28;20420;-58
2023/10/09 00:55:13;;;;;;;3.77;2.23;;;12.20;99.90;;;;;;5047368;28;20425;-59
2023/10/09 00:57:47;;;;;;;5.63;3.30;;;12.20;99.90;;;;;;5048327;28;20420;-60
2023/10/09 01:00:31;;;;;;;4.97;3.10;;;12.10;99.90;;;;;;5047259;28;20503;-59
2023/10/09 01:03:19;;;;;;;4.20;2.30;;;12.10;99.90;;;;;;5046875;28;20451;-59
2023/10/09 01:05:52;;;;;;;3.00;2.10;;;12.10;99.90;;;;;;5047636;28;20561;-59
2023/10/09 01:08:26;;;;;;;2.53;2.13;;;12.10;99.90;;;;;;5047955;28;20439;-58
2023/10/09 01:10:56;;;;;;;3.17;2.03;;;12.10;99.90;;;;;;5048575;28;20435;-59
2023/10/09 01:13:28;;;;;;;5.07;2.50;;;12.10;99.90;;;;;;5049271;28;20472;-60
2023/10/09 01:15:57;;;;;;;5.17;2.50;;;12.10;99.90;;;;;;5049354;28;20436;-59
2023/10/09 01:18:35;;;;;;;4.43;2.80;;;12.10;99.90;;;;;;5050088;28;20439;-60
2023/10/09 01:21:03;;;;;;;3.73;2.77;;;12.10;99.90;;;;;;5049303;28;20537;-60
2023/10/09 01:23:31;;;;;;;4.47;1.90;;;12.10;99.90;;;;;;5048710;28;20448;-60
2023/10/09 01:25:58;;;;;;;6.97;2.00;;;12.10;99.90;;;;;;5048479;28;20511;-58
2023/10/09 01:28:27;;;;;;;3.20;2.27;;;12.00;99.90;;;;;;5048872;28;20527;-59
2023/10/09 01:30:55;;;;;;;2.73;1.90;;;12.10;99.90;;;;;;5048920;28;20551;-59
2023/10/09 01:33:26;;;;;;;3.70;2.83;;;12.00;99.90;;;;;;5048622;28;20482;-60
2023/10/09 01:35:58;;;;;;;3.33;2.30;;;12.00;99.90;;;;;;5048420;28;20774;-59
2023/10/09 01:38:40;;;;;;;4.77;2.33;;;12.00;99.90;;;;;;5048167;28;20432;-61
2023/10/09 01:41:19;;;;;;;4.60;2.53;;;12.00;99.90;;;;;;5047471;28;20472;-61
2023/10/09 01:43:50;;;;;;;5.40;2.67;;;12.00;99.90;;;;;;5050875;28;20429;-58
2023/10/09 01:46:19;;;;;;;3.47;2.40;;;11.90;99.90;;;;;;5046013;28;20521;-60
2023/10/09 01:48:46;;;;;;;3.20;1.73;;;11.90;99.90;;;;;;5050691;28;20510;-59
2023/10/09 01:51:17;;;;;;;7.77;3.13;;;11.90;99.90;;;;;;5045852;28;20508;-59
2023/10/09 01:53:44;;;;;;;3.40;2.10;;;11.80;99.90;;;;;;5048213;28;20976;-59
2023/10/09 01:56:16;;;;;;;3.50;2.70;;;11.80;99.90;;;;;;5045538;28;20461;-60
2023/10/09 01:58:46;;;;;;;3.90;2.63;;;11.70;99.90;;;;;;5046784;28;20429;-60
2023/10/09 02:01:15;;;;;;;5.63;2.67;;;11.70;99.90;;;;;;5048877;28;20429;-60
2023/10/09 02:03:43;;;;;;;3.23;1.93;;;11.70;99.90;;;;;;5046951;28;20516;-60
2023/10/09 02:06:26;;;;;;;3.57;2.13;;;11.80;99.90;;;;;;5048377;28;20500;-59
2023/10/09 02:08:54;;;;;;;4.10;3.13;;;11.70;99.90;;;;;;5047556;28;20492;-60
2023/10/09 02:11:36;;;;;;;3.07;2.60;;;11.70;99.90;;;;;;5047586;28;20452;-59
2023/10/09 02:14:19;;;;;;;4.17;2.77;;;11.70;99.90;;;;;;5047433;28;20428;-59
2023/10/09 02:17:02;;;;;;;5.60;2.60;;;11.80;99.90;;;;;;5048307;28;20472;-59
2023/10/09 02:19:33;;;;;;;4.47;2.50;;;11.70;99.90;;;;;;5046516;28;20532;-61
2023/10/09 02:22:02;;;;;;;3.13;2.20;;;11.80;99.90;;;;;;5045565;28;20563;-59
2023/10/09 02:24:49;;;;;;;4.43;2.50;;;11.80;99.90;;;;;;5047461;28;20540;-58
2023/10/09 02:27:39;;;;;;;5.37;2.80;;;11.80;99.90;;;;;;5046861;28;20531;-59
2023/10/09 02:30:17;;;;;;;7.57;3.03;;;11.80;99.90;;;;;;5045959;28;20429;-59
2023/10/09 02:32:44;;;;;;;4.83;2.47;;;11.80;99.90;;;;;;5046389;28;20425;-59
2023/10/09 02:35:36;;;;;;;2.83;2.53;;;11.80;99.90;;;;;;5046425;28;20483;-58
2023/10/09 02:38:06;;;;;;;5.70;2.87;;;11.80;99.90;;;;;;5048391;28;20444;-59
2023/10/09 02:40:40;;;;;;;3.13;2.33;;;11.80;99.90;;;;;;5048322;28;20778;-57
2023/10/09 02:43:17;;;;;;;3.20;2.90;;;11.80;99.90;;;;;;5049128;28;20433;-58
2023/10/09 02:45:50;;;;;;;8.73;3.60;;;11.70;99.90;;;;;;5046209;28;20511;-59
2023/10/09 02:48:20;;;;;;;4.83;2.77;;;11.70;99.90;;;;;;5046102;28;20433;-59
2023/10/09 02:50:50;;;;;;;6.73;3.80;;;11.70;99.90;;;;;;5046516;28;20471;-59
2023/10/09 02:53:19;;;;;;;5.10;2.40;;;11.60;99.90;;;;;;5046401;28;20475;-59
2023/10/09 02:56:03;;;;;;;4.43;2.83;;;11.60;99.90;;;;;;5045632;28;20508;-59
2023/10/09 02:58:36;;;;;;;4.80;3.07;;;11.60;99.90;;;;;;5046189;28;20463;-59
2023/10/09 03:01:04;;;;;;;4.17;2.60;;;11.60;99.90;;;;;;5045723;28;20503;-60
2023/10/09 03:03:35;;;;;;;4.17;3.23;;;11.60;99.90;;;;;;5046830;28;20536;-58
2023/10/09 03:06:10;;;;;;;5.10;3.27;;;11.50;99.90;;;;;;5046757;28;20944;-59
2023/10/09 03:08:38;;;;;;;4.53;2.33;;;11.50;99.90;;;;;;5047519;28;20431;-60
2023/10/09 03:11:06;;;;;;;5.10;2.53;;;11.50;99.90;;;;;;5046293;28;20909;-60
2023/10/09 03:13:34;;;;;;;4.80;3.00;;;11.50;99.90;;;;;;5046396;28;20444;-59
2023/10/09 03:16:02;;;;;;;4.63;2.87;;;11.50;99.90;;;;;;5047369;28;20447;-59
2023/10/09 03:18:31;;;;;;;5.23;2.93;;;11.50;99.90;;;;;;5048081;28;20458;-60
2023/10/09 03:20:59;;;;;;;4.23;2.80;;;11.50;99.90;;;;;;5050574;28;20468;-60
2023/10/09 03:23:26;;;;;;;3.83;2.63;;;11.50;99.90;;;;;;5050720;28;20452;-59
2023/10/09 03:25:53;;;;;;;5.70;3.00;;;11.50;99.90;;;;;;5051490;28;20487;-59
2023/10/09 03:28:19;;;;;;;5.30;2.93;;;11.50;99.90;;;;;;5050210;28;20487;-59
2023/10/09 03:30:48;;;;;;;3.83;2.80;;;11.50;99.90;;;;;;5050648;28;20460;-59
2023/10/09 03:33:15;;;;;;;4.43;2.70;;;11.50;99.90;;;;;;5052504;28;20490;-59
2023/10/09 03:35:42;;;;;;;4.90;3.00;;;11.50;99.90;;;;;;5052899;28;20468;-58
2023/10/09 03:38:17;;;;;;;4.40;3.30;;;11.40;99.90;;;;;;5054459;28;20511;-58
2023/10/09 03:40:44;;;;;;;3.10;2.27;;;11.40;99.90;;;;;;5052210;28;20816;-59
2023/10/09 03:43:11;;;;;;;3.70;2.60;;;11.50;99.90;;;;;;5050496;28;20472;-60
2023/10/09 03:45:45;;;;;;;8.90;2.97;;;11.50;99.90;;;;;;5050817;28;20448;-59
2023/10/09 03:48:20;;;;;;;7.07;3.33;;;11.50;99.90;;;;;;5050153;28;20432;-57
2023/10/09 03:50:47;;;;;;;3.97;2.90;;;11.50;99.90;;;;;;5050424;28;20471;-59
2023/10/09 03:53:14;;;;;;;4.57;2.87;;;11.50;99.90;;;;;;5050208;28;20452;-58
2023/10/09 03:55:42;;;;;;;4.43;2.77;;;11.40;99.90;;;;;;5050245;28;20735;-59
2023/10/09 03:58:11;;;;;;;8.30;3.10;;;11.20;99.90;;;;;;5049811;28;20472;-59
2023/10/09 04:00:44;;;;;;;3.20;2.67;;;11.50;99.90;;;;;;5049850;28;20510;-59
2023/10/09 04:03:14;;;;;;;4.80;3.63;;;11.40;99.90;;;;;;5052445;28;20498;-60
2023/10/09 04:05:43;;;;;;;7.63;2.93;;;11.40;99.90;;;;;;5052266;28;20494;-59
2023/10/09 04:08:13;;;;;;;5.30;3.10;;;11.50;99.90;;;;;;5052470;28;20440;-60
2023/10/09 04:10:52;;;;;;;4.10;2.37;;;11.50;99.90;;;;;;5053260;28;20431;-60
2023/10/09 04:13:22;;;;;;;3.00;2.50;;;11.50;99.90;;;;;;5053488;28;20425;-60
2023/10/09 04:15:52;;;;;;;4.90;2.80;;;11.40;99.90;;;;;;5052502;28;20495;-58
2023/10/09 04:18:32;;;;;;;4.80;2.80;;;11.40;99.90;;;;;;5052006;28;20432;-58
2023/10/09 04:21:18;;;;;;;4.60;2.80;;;11.30;99.90;;;;;;5051458;28;20421;-60
2023/10/09 04:24:09;;;;;;;8.40;4.63;;;11.40;99.90;;;;;;5052735;28;20420;-60
2023/10/09 04:26:37;;;;;;;3.43;2.27;;;11.40;99.90;;;;;;5051616;28;20553;-60
2023/10/09 04:29:06;;;;;;;9.47;4.10;;;11.30;99.90;;;;;;5051772;28;20462;-59
2023/10/09 04:31:37;;;;;;;7.43;3.43;;;11.30;99.90;;;;;;5050319;28;20466;-57
2023/10/09 04:34:28;;;;;;;7.03;4.00;;;11.30;99.90;;;;;;5051489;28;20523;-59
2023/10/09 04:37:00;;;;;;;4.30;3.43;;;11.30;99.90;;;;;;5051970;28;20436;-55
2023/10/09 04:39:36;;;;;;;8.53;2.93;;;11.20;99.90;;;;;;5050857;28;20538;-58
2023/10/09 04:42:26;;;;;;;5.60;3.40;;;11.20;99.90;;;;;;5051142;28;20455;-58
2023/10/09 04:45:18;;;;;;;3.83;3.40;;;11.20;99.90;;;;;;5051584;28;20456;-59
2023/10/09 04:47:57;;;;;;;7.73;4.10;;;11.10;99.90;;;;;;5051410;28;20971;-60
2023/10/09 04:51:10;;;;;;;4.57;3.33;;;11.10;99.90;;;;;;5051878;28;20428;-59
2023/10/09 04:53:39;;;;;;;4.67;2.80;;;11.10;99.90;;;;;;5050882;28;20467;-59
2023/10/09 04:56:15;;;;;;;4.70;3.17;;;11.10;99.90;;;;;;5051385;28;20943;-60
2023/10/09 04:58:43;;;;;;;4.50;3.53;;;11.10;99.90;;;;;;5049653;28;20503;-59
2023/10/09 05:01:15;;;;;;;4.40;3.27;;;11.10;99.90;;;;;;5050053;28;20444;-58
2023/10/09 05:03:45;;;;;;;7.67;3.20;;;11.20;99.90;;;;;;5050235;28;20429;-60
2023/10/09 05:06:42;;;;;;;5.53;2.93;;;11.20;99.90;;;;;;5050512;28;20456;-60
2023/10/09 05:09:12;;;;;;;3.33;2.63;;;11.20;99.90;;;;;;5050466;28;20440;-58
2023/10/09 05:12:09;;;;;;;6.27;2.90;;;11.20;99.90;;;;;;5050455;28;20456;-59
2023/10/09 05:14:45;;;;;;;3.70;3.00;;;11.20;99.90;;;;;;5050139;28;20436;-60
2023/10/09 05:17:16;;;;;;;4.30;3.10;;;11.20;99.90;;;;;;5050055;28;20499;-59
2023/10/09 05:19:54;;;;;;;4.13;3.33;;;11.20;99.90;;;;;;5049717;28;20479;-59
2023/10/09 05:22:36;;;;;;;4.63;3.20;;;11.10;99.90;;;;;;5050019;28;20428;-60
2023/10/09 05:25:14;;;;;;;4.87;3.10;;;11.10;99.90;;;;;;5050498;28;20715;-58
2023/10/09 05:27:50;;;;;;;8.03;2.87;;;11.10;99.90;;;;;;5049315;28;20467;-60
2023/10/09 05:30:26;;;;;;;4.73;3.60;;;11.10;99.90;;;;;;5049923;28;20421;-56
2023/10/09 05:33:27;;;;;;;3.37;2.90;;;11.00;99.90;;;;;;5049607;28;20946;-59
2023/10/09 05:36:05;;;;;;;4.53;3.03;;;11.00;99.90;;;;;;5049053;28;20436;-60
2023/10/09 05:38:35;;;;;;;6.60;3.00;;;11.00;99.90;;;;;;5049943;28;20502;-59
2023/10/09 05:41:31;;;;;;;4.33;2.90;;;11.00;99.90;;;;;;5049447;28;20425;-59
2023/10/09 05:46:36;;;;;;;4.77;3.37;;;11.00;99.90;;;;;;5050190;28;20467;-60
2023/10/09 05:49:09;;;;;;;5.90;3.00;;;11.00;99.90;;;;;;5050057;28;20444;-60
2023/10/09 05:51:43;;;;;;;4.10;2.77;;;11.00;99.90;;;;;;5049121;28;20425;-60
2023/10/09 05:54:53;;;;;;;4.83;2.33;;;10.90;99.90;;;;;;5048359;28;20468;-58
2023/10/09 06:05:51;;;;;;;7.37;2.80;;;10.90;99.90;;;;;;5038194;28;20428;-59
2023/10/09 06:08:24;;;;;;;2.60;2.03;;;10.90;99.90;;;;;;5049627;28;20507;-59
2023/10/09 06:11:05;;;;;;;5.63;2.77;;;10.90;99.90;;;;;;5050063;28;20464;-59
2023/10/09 06:13:41;;;;;;;4.03;2.60;;;10.90;99.90;;;;;;5048897;28;20468;-59
2023/10/09 06:16:19;;;;;;;6.90;3.50;;;10.90;99.90;;;;;;5049381;28;20481;-57
2023/10/09 06:18:54;;;;;;;3.30;2.63;;;10.90;99.90;;;;;;5049604;28;20472;-60
2023/10/09 06:24:22;;;;;;;4.83;2.77;;;10.90;99.90;;;;;;5038604;28;20444;-60
2023/10/09 06:29:37;;;;;;;7.50;2.73;;;11.00;99.90;;;;;;5035195;28;20542;-60
2023/10/09 06:34:57;;;;;;;5.37;2.47;;;11.00;99.90;;;;;;5040626;28;20428;-62
2023/10/09 06:37:35;;;;;;;4.30;3.13;;;11.10;99.90;;;;;;5042300;28;20425;-60
2023/10/09 06:43:07;;;;;;;4.17;3.43;;;11.10;99.90;;;;;;4993891;28;20426;-57
2023/10/09 06:45:45;;;;;;;3.93;2.70;;;11.10;99.90;;;;;;5035863;28;20427;-53
2023/10/09 06:51:03;;;;;;;7.03;3.10;;;11.20;99.90;;;;;;5056572;28;20451;-58
2023/10/09 06:56:22;;;;;;;3.43;2.50;;;11.20;99.90;;;;;;5038175;28;20921;-60
2023/10/09 06:58:54;;;;;;;6.80;3.40;;;11.30;99.90;;;;;;5044033;28;20475;-56
2023/10/09 07:01:28;;;;;;;5.73;2.80;;;11.30;99.90;;;;;;5058475;28;20398;-57
2023/10/09 07:03:59;;;;;;;4.07;2.90;;;11.40;99.90;;;;;;5043587;28;20467;-60
2023/10/09 07:09:18;;;;;;;4.77;3.03;;;11.50;99.90;;;;;;5057465;28;20436;-52
2023/10/09 07:12:03;;;;;;;4.20;3.30;;;11.60;99.90;;;;;;5049074;28;20424;-60
2023/10/09 07:17:21;;;;;;;7.97;4.80;;;11.70;99.90;;;;;;5057040;28;20439;-59
2023/10/09 07:20:13;;;;;;;9.37;3.73;;;11.70;99.90;;;;;;5037905;28;20462;-61
2023/10/09 07:22:56;;;;;;;7.77;3.80;;;11.80;99.90;;;;;;5034285;28;20472;-62
2023/10/09 07:25:54;;;;;;;4.50;3.87;;;11.80;99.90;;;;;;5044082;28;20417;-58
2023/10/09 07:31:09;;;;;;;6.60;4.17;;;11.70;99.90;;;;;;5041097;28;20460;-60
2023/10/09 07:36:29;;;;;;;6.50;3.50;;;11.90;99.90;;;;;;5038378;28;20908;-57
2023/10/09 07:38:59;;;;;;;3.73;3.10;;;11.90;99.90;;;;;;5034089;28;20424;-61
2023/10/09 07:41:39;;;;;;;5.83;3.30;;;11.90;99.90;;;;;;5035129;28;20472;-60
2023/10/09 07:47:13;;;;;;;5.77;4.17;;;12.00;99.90;;;;;;5051210;28;20452;-59
2023/10/09 07:49:39;;;;;;;5.97;3.33;;;12.00;99.90;;;;;;5043331;28;20435;-60
2023/10/09 07:52:06;;;;;;;5.83;3.70;;;12.10;99.90;;;;;;5049033;28;20428;-56
2023/10/09 07:54:33;;;;;;;6.80;2.77;;;12.10;99.90;;;;;;5040526;28;20428;-60
2023/10/09 07:57:08;;;;;;;10.93;6.13;;;12.00;99.90;;;;;;5044587;28;20440;-60
2023/10/09 07:59:40;;;;;;;5.03;4.00;;;12.00;99.90;;;;;;5033839;28;20534;-60
2023/10/09 08:02:13;;;;;;;5.77;3.30;;;12.00;99.90;;;;;;5057364;28;20428;-59
2023/10/09 08:04:48;;;;;;;7.60;4.63;;;12.10;99.90;;;;;;5042041;28;20451;-60
2023/10/09 08:07:25;;;;;;;9.80;4.07;;;12.10;99.90;;;;;;5048218;28;20443;-56
2023/10/09 08:11:35;;;;;;;4.27;3.60;;;12.10;99.90;;;;;;5044213;28;20889;-59
2023/10/09 08:12:57;;;;;;;4.57;3.20;;;12.10;99.90;;;;;;5037245;28;20936;-61
2023/10/09 08:15:34;;;;;;;6.20;3.20;;;12.10;99.90;;;;;;5040048;28;20428;-58
2023/10/09 08:18:09;;;;;;;4.00;3.60;;;12.10;99.90;;;;;;5061408;28;20463;-57
2023/10/09 08:23:28;;;;;;;7.00;3.53;;;12.20;99.90;;;;;;5036899;28;20450;-60
2023/10/09 08:26:12;;;;;;;12.80;3.27;;;12.30;99.90;;;;;;5037096;28;20451;-59
2023/10/09 08:28:42;;;;;;;5.80;3.90;;;12.30;99.90;;;;;;5046868;28;20455;-56
2023/10/09 08:31:19;;;;;;;8.03;4.10;;;12.30;99.90;;;;;;5040809;28;20535;-58
2023/10/09 08:33:56;;;;;;;4.47;3.93;;;12.40;99.90;;;;;;5058441;28;20412;-62
2023/10/09 08:36:22;;;;;;;5.17;3.37;;;12.30;99.90;;;;;;5037663;28;20474;-59
2023/10/09 08:38:49;;;;;;;5.67;3.73;;;12.40;99.90;;;;;;5055443;28;20451;-58
2023/10/09 08:41:22;;;;;;;7.37;3.90;;;12.40;99.90;;;;;;5051564;28;20492;-51
2023/10/09 08:43:54;;;;;;;4.30;3.73;;;12.30;99.90;;;;;;5059808;28;20429;-55
2023/10/09 08:46:22;;;;;;;6.50;3.50;;;12.30;99.90;;;;;;5037552;28;20814;-61
2023/10/09 08:48:51;;;;;;;4.00;3.60;;;12.30;99.90;;;;;;5042143;28;20523;-60
2023/10/09 08:51:21;;;;;;;12.53;4.10;;;12.30;99.90;;;;;;5036645;28;20531;-58
2023/10/09 08:53:48;;;;;;;4.83;3.73;;;12.30;99.90;;;;;;5036623;28;20440;-61
2023/10/09 08:56:21;;;;;;;7.13;3.93;;;12.30;99.90;;;;;;5049738;28;20420;-55
2023/10/09 08:58:51;;;;;;;5.53;3.53;;;12.30;99.90;;;;;;5059142;28;20500;-58
2023/10/09 09:01:21;;;;;;;4.40;3.63;;;12.30;99.90;;;;;;5039600;28;20463;-60
2023/10/09 09:03:51;;;;;;;5.93;4.80;;;12.30;99.90;;;;;;5043121;28;20472;-60
2023/10/09 09:06:20;;;;;;;4.83;3.00;;;12.30;99.90;;;;;;5036737;28;20535;-61
2023/10/09 09:08:48;;;;;;;5.20;3.03;;;12.20;99.90;;;;;;5036261;28;20480;-61
2023/10/09 09:11:16;;;;;;;3.50;2.60;;;12.20;99.90;;;;;;5036312;28;20536;-61
2023/10/09 09:13:48;;;;;;;5.20;3.20;;;12.20;99.90;;;;;;5050240;28;20502;-58
2023/10/09 09:16:20;;;;;;;8.10;3.60;;;12.10;99.90;;;;;;5044293;28;20472;-60
2023/10/09 09:19:17;;;;;;;7.40;4.90;;;12.20;99.90;;;;;;5059108;28;20432;-56
2023/10/09 09:21:54;;;;;;;5.53;3.70;;;12.20;99.90;;;;;;5039795;28;20469;-52
2023/10/09 09:24:30;;;;;;;6.27;4.13;;;12.20;99.90;;;;;;5036853;28;20434;-52
2023/10/09 09:27:09;;;;;;;7.40;4.63;;;12.20;99.90;;;;;;5042664;28;20471;-52
2023/10/09 09:29:41;;;;;;;4.37;3.57;;;12.20;99.90;;;;;;5045374;28;20722;-50
2023/10/09 09:32:17;;;;;;;6.00;3.37;;;12.30;99.90;;;;;;5035720;28;20472;-50
2023/10/09 09:34:49;;;;;;;8.13;4.67;;;12.30;99.90;;;;;;5046446;28;20416;-48
2023/10/09 09:37:21;;;;;;;6.30;4.10;;;12.30;99.90;;;;;;5056923;28;20427;-50
2023/10/09 09:39:51;;;;;;;7.37;4.13;;;12.40;99.90;;;;;;5035754;28;20876;-51
2023/10/09 09:42:24;;;;;;;9.80;4.43;;;12.50;99.90;;;;;;5036828;28;20429;-52
2023/10/09 09:44:52;;;;;;;5.63;4.87;;;12.70;99.90;;;;;;5040382;28;20495;-50
2023/10/09 09:47:26;;;;;;;4.60;3.73;;;12.80;99.90;;;;;;5045272;28;20928;-52
2023/10/09 09:49:59;;;;;;;7.70;4.53;;;12.70;99.90;;;;;;5035390;28;20963;-54
2023/10/09 09:52:27;;;;;;;7.00;4.37;;;12.70;99.90;;;;;;5035815;28;20435;-55
2023/10/09 09:54:54;;;;;;;8.53;4.40;;;12.70;99.90;;;;;;5035287;28;20468;-53
2023/10/09 09:57:26;;;;;;;7.30;5.10;;;12.70;99.90;;;;;;5035486;28;20522;-47
2023/10/09 09:59:56;;;;;;;5.03;3.80;;;12.70;99.90;;;;;;5038759;28;20455;-50
2023/10/09 10:02:31;;;;;;;5.40;4.37;;;12.70;99.90;;;;;;5057012;28;20431;-50
2023/10/09 10:05:03;;;;;;;5.70;4.43;;;12.70;99.90;;;;;;5038428;28;20511;-53
2023/10/09 10:07:42;;;;;;;6.93;4.67;;;12.60;99.90;;;;;;5056838;28;20948;-54
2023/10/09 10:10:39;;;;;;;7.20;4.57;;;12.50;99.90;;;;;;5035469;28;20455;-49
2023/10/09 10:13:06;;;;;;;6.27;3.43;;;12.50;99.90;;;;;;5029212;28;20531;-51
2023/10/09 10:16:13;;;;;;;7.47;5.70;;;12.50;99.90;;;;;;5039827;28;20448;-51
2023/10/09 10:21:40;;;;;;;5.30;4.37;;;12.60;99.90;;;;;;5054819;28;20425;-50
2023/10/09 10:24:52;;;;;;;7.20;4.77;;;12.60;99.90;;;;;;5058587;28;20424;-53
2023/10/09 10:27:24;;;;;;;7.17;5.00;;;12.60;99.90;;;;;;5034617;28;20915;-50
2023/10/09 10:30:33;;;;;;;6.33;4.37;;;12.70;99.90;;;;;;5055593;28;20452;-45
2023/10/09 10:33:09;;;;;;;5.93;4.50;;;12.70;99.90;;;;;;5057146;28;20419;-53
2023/10/09 10:35:45;;;;;;;7.93;4.50;;;12.80;99.90;;;;;;5041716;28;20467;-52
2023/10/09 10:38:42;;;;;;;5.00;4.27;;;12.90;99.90;;;;;;5038681;28;20420;-45
2023/10/09 10:41:12;;;;;;;4.97;4.47;;;12.90;99.90;;;;;;5041762;28;20507;-51
2023/10/09 10:43:54;;;;;;;11.40;4.60;;;12.90;99.90;;;;;;5049461;28;20444;-51
2023/10/09 10:46:30;;;;;;;4.70;4.13;;;13.00;99.90;;;;;;5034706;28;20472;-51
2023/10/09 10:49:00;;;;;;;5.57;4.23;;;12.90;99.90;;;;;;5034726;28;20500;-48
2023/10/09 10:51:35;;;;;;;6.70;5.73;;;12.90;99.90;;;;;;5039205;28;20522;-50
2023/10/09 10:56:51;;;;;;;7.43;4.70;;;13.00;99.90;;;;;;5053845;28;20466;-49
2023/10/09 10:59:24;;;;;;;5.30;4.50;;;13.20;99.90;;;;;;5053371;28;20425;-49
2023/10/09 11:01:58;;;;;;;5.27;4.77;;;13.30;99.90;;;;;;5049187;28;20428;-53
2023/10/09 11:04:38;;;;;;;6.27;5.00;;;13.40;99.90;;;;;;5053560;28;20459;-49
2023/10/09 11:07:09;;;;;;;5.40;4.50;;;13.40;99.90;;;;;;5056247;28;20412;-48
2023/10/09 11:10:07;;;;;;;10.70;4.93;;;13.50;99.90;;;;;;5056192;28;20856;-47
2023/10/09 11:12:45;;;;;;;12.37;4.73;;;13.50;99.90;;;;;;5055964;28;20457;-53
2023/10/09 11:15:34;;;;;;;8.40;4.17;;;13.50;99.90;;;;;;5056406;28;20456;-51
2023/10/09 11:18:07;;;;;;;8.70;5.60;;;13.50;99.90;;;;;;5055436;28;20437;-51
2023/10/09 11:20:35;;;;;;;7.57;5.57;;;13.50;99.90;;;;;;5036952;28;20472;-50
2023/10/09 11:23:17;;;;;;;8.23;6.00;;;13.60;99.90;;;;;;5047535;28;20799;-54
2023/10/09 11:26:07;;;;;;;7.80;6.00;;;13.60;99.90;;;;;;5041331;28;20979;-51
2023/10/09 11:28:42;;;;;;;8.57;5.80;;;13.60;99.90;;;;;;5047104;28;20802;-51
2023/10/09 11:31:11;;;;;;;8.27;5.23;;;13.60;99.90;;;;;;5033991;28;20534;-47
2023/10/09 11:33:48;;;;;;;8.87;6.03;;;13.60;99.90;;;;;;5036383;28;20475;-51
2023/10/09 11:36:18;;;;;;;8.83;5.83;;;13.60;99.90;;;;;;5052321;28;20443;-51
2023/10/09 11:38:45;;;;;;;9.23;6.43;;;13.60;99.90;;;;;;5052806;28;20519;-49
2023/10/09 11:41:23;;;;;;;7.57;5.43;;;13.50;99.90;;;;;;5059519;28;20440;-49
2023/10/09 11:43:53;;;;;;;9.40;7.40;;;13.50;99.90;;;;;;5048415;28;20511;-52
2023/10/09 11:46:48;;;;;;;9.20;6.77;;;13.50;99.90;;;;;;5055952;28;20440;-46
2023/10/09 11:49:32;;;;;;;8.40;6.80;;;13.50;99.90;;;;;;5054725;28;20503;-52
2023/10/09 11:54:56;;;;;;;12.27;8.10;;;13.70;99.90;;;;;;5031191;28;20448;-54
2023/10/09 11:57:33;;;;;;;13.07;6.60;;;13.80;99.90;;;;;;5038398;28;20440;-52
2023/10/09 12:00:01;;;;;;;8.57;5.83;;;13.80;99.90;;;;;;5051345;28;20455;-54
2023/10/09 12:02:28;;;;;;;8.53;5.97;;;13.70;99.90;;;;;;5043295;28;20448;-49
2023/10/09 12:04:56;;;;;;;12.73;7.07;;;13.80;99.90;;;;;;5049087;28;20439;-51
2023/10/09 12:07:25;;;;;;;13.07;6.80;;;13.90;99.90;;;;;;5037518;28;20451;-51
2023/10/09 12:09:56;;;;;;;8.53;7.23;;;14.10;99.90;;;;;;5051982;28;20501;-46
2023/10/09 12:12:26;;;;;;;7.87;7.07;;;14.30;99.90;;;;;;5059481;28;20507;-50
2023/10/09 12:14:58;;;;;;;12.70;6.70;;;14.40;99.90;;;;;;5059542;28;20459;-48
2023/10/09 12:17:25;;;;;;;9.77;6.00;;;14.40;99.90;;;;;;5045644;28;20990;-49
2023/10/09 12:19:52;;;;;;;7.20;6.47;;;14.40;99.90;;;;;;5054358;28;20898;-50
2023/10/09 12:22:21;;;;;;;8.33;6.50;;;14.40;99.90;;;;;;5054910;28;20451;-53
2023/10/09 12:24:57;;;;;;;9.17;6.50;;;14.40;99.90;;;;;;5053925;28;20478;-46
2023/10/09 12:27:25;;;;;;;11.10;6.00;;;14.30;99.90;;;;;;5054360;28;20431;-50
2023/10/09 12:29:58;;;;;;;9.77;6.27;;;14.30;99.90;;;;;;5057779;28;20475;-54
2023/10/09 12:32:30;;;;;;;13.87;7.10;;;14.00;99.90;;;;;;5058930;28;20482;-59
2023/10/09 12:35:03;;;;;;;13.27;7.40;;;14.00;99.90;;;;;;5058489;28;20538;-60
2023/10/09 12:37:31;;;;;;;15.27;7.83;;;13.90;99.90;;;;;;5058480;28;20435;-56
2023/10/09 12:39:58;;;;;;;7.43;6.57;;;13.90;99.90;;;;;;5058613;28;20487;-58
2023/10/09 12:42:28;;;;;;;10.67;6.37;;;13.80;99.90;;;;;;5058757;28;20447;-59
2023/10/09 12:44:57;;;;;;;7.20;6.50;;;13.70;99.90;;;;;;5057226;28;20434;-59
2023/10/09 12:47:24;;;;;;;10.07;7.30;;;13.60;99.90;;;;;;5038341;28;20502;-59
2023/10/09 12:49:53;;;;;;;10.13;8.37;;;13.50;99.90;;;;;;5050818;28;20483;-63
2023/10/09 12:52:20;;;;;;;12.17;8.63;;;13.40;99.90;;;;;;5044048;28;20494;-59
2023/10/09 12:54:52;;;;;;;8.33;6.50;;;13.30;99.90;;;;;;5057793;28;20491;-62
2023/10/09 12:57:20;;;;;;;10.20;7.80;;;13.20;99.90;;;;;;5058597;28;20452;-60
2023/10/09 12:59:50;;;;;;;10.73;8.50;;;13.30;99.90;;;;;;5058765;28;20425;-60
2023/10/09 13:02:28;;;;;;;12.40;8.40;;;13.20;99.90;;;;;;5058039;28;20507;-56
2023/10/09 13:04:55;;;;;;;11.23;7.83;;;13.20;99.90;;;;;;5058285;28;20463;-60
2023/10/09 13:07:22;;;;;;;9.80;6.80;;;13.20;99.90;;;;;;5058024;28;20482;-57
2023/10/09 13:10:08;;;;;;;10.43;7.67;;;13.20;99.90;;;;;;5057861;28;20563;-60
2023/10/09 13:12:38;;;;;;;10.60;7.80;;;13.20;99.90;;;;;;5057920;28;20463;-57
2023/10/09 13:15:09;;;;;;;10.83;8.03;;;13.30;99.90;;;;;;5045267;28;20483;-56
2023/10/09 13:17:36;;;;;;;10.93;8.07;;;12.70;99.90;;;;;;5056555;28;20447;-60
2023/10/09 13:20:04;;;;;;;9.93;7.97;;;13.30;99.90;;;;;;5057918;28;20452;-57
2023/10/09 13:22:31;;;;;;;9.93;7.67;;;13.30;99.90;;;;;;5058562;28;20437;-59
2023/10/09 13:25:03;;;;;;;10.00;7.43;;;13.30;99.90;;;;;;5057790;28;20440;-60
2023/10/09 13:27:34;;;;;;;23.67;9.73;;;13.30;99.90;;;;;;5047480;28;20881;-59
2023/10/09 13:30:05;;;;;;;20.07;8.60;;;13.30;99.90;;;;;;5055840;28;20494;-58
2023/10/09 13:32:37;;;;;;;10.57;8.43;;;13.40;99.90;;;;;;5057633;28;20425;-61
2023/10/09 13:35:05;;;;;;;9.73;7.40;;;13.40;99.90;;;;;;5058085;28;20427;-60
2023/10/09 13:37:36;;;;;;;15.20;8.70;;;13.40;99.90;;;;;;5044836;28;20870;-61
2023/10/09 13:40:10;;;;;;;10.10;7.30;;;12.80;99.90;;;;;;5044282;28;20436;-54
2023/10/09 13:42:37;;;;;;;14.60;8.57;;;13.30;99.90;;;;;;5052306;28;20472;-60
2023/10/09 13:45:15;;;;;;;10.97;7.33;;;13.30;99.90;;;;;;5055343;28;20474;-60
2023/10/09 13:47:44;;;;;;;11.13;7.77;;;13.30;99.90;;;;;;5044943;28;20498;-60
2023/10/09 13:50:13;;;;;;;13.13;7.30;;;13.40;99.90;;;;;;5056204;28;20479;-51
2023/10/09 13:52:40;;;;;;;14.60;8.70;;;13.30;99.90;;;;;;5052180;28;20432;-60
2023/10/09 13:55:16;;;;;;;10.80;6.87;;;13.30;99.90;;;;;;5035623;28;20479;-61
2023/10/09 13:57:45;;;;;;;8.27;7.45;;;13.30;99.90;;;;;;5039547;28;20341;-62
2023/10/09 14:00:17;;;;;;;9.90;7.20;;;13.30;99.90;;;;;;5054797;28;20320;-60
2023/10/09 14:02:46;;;;;;;11.67;8.30;;;13.30;99.90;;;;;;5044389;28;20467;-57
2023/10/09 14:05:13;;;;;;;11.03;7.30;;;13.30;99.90;;;;;;5050749;28;20806;-61
2023/10/09 14:07:41;;;;;;;12.10;7.87;;;13.40;99.90;;;;;;5050496;28;20472;-62
2023/10/09 14:10:17;;;;;;;8.53;6.50;;;13.40;99.90;;;;;;5039308;28;20509;-62
2023/10/09 14:12:44;;;;;;;9.80;6.77;;;13.30;99.90;;;;;;5035527;28;20875;-60
2023/10/09 14:15:17;;;;;;;9.77;7.90;;;13.30;99.90;;;;;;5043622;28;20440;-61